Time;durP1;ratioP1;P1;durP2;ratioP2;P2;SDS_P1;SDS_P2;PMS_P1;PMS_P2;Temp;Humidity;BMP_temperature;BMP_pressure;BME280_temperature;BME280_humidity;BME280_pressure;Samples;Min_cycle;Max_cycle;Signal;HPM_P1;HPM_P2
2023/09/15 00:02:32;;;;;;;;;;;;;;;;;;6361158;27;19946;-76
2023/09/15 00:05:33;;;;;;;;;;;;;;;;;;6340352;27;20389;-76
2023/09/15 00:08:34;;;;;;;;;;;;;;;;;;6341445;27;19930;-75
2023/09/15 00:11:40;;;;;;;;;;;;;;;;;;6333578;27;20235;-75
2023/09/15 00:14:40;;;;;;;;;;;;;;;;;;5644376;27;10000844;-75
2023/09/15 00:17:40;;;;;;;;;;;;;;;;;;6357006;27;19960;-76
2023/09/15 00:20:40;;;;;;;;;;;;;;;;;;6336590;27;19919;-76
2023/09/15 00:23:40;;;;;;;;;;;;;;;;;;6340343;27;19934;-75
2023/09/15 00:26:40;;;;;;;;;;;;;;;;;;6359670;27;20362;-75
2023/09/15 00:29:41;;;;;;;;;;;;;;;;;;6339749;27;19907;-76
2023/09/15 00:32:41;;;;;;;;;;;;;;;;;;6359153;27;19935;-75
2023/09/15 00:35:41;;;;;;;;;;;;;;;;;;6353990;27;20031;-74
2023/09/15 00:38:41;;;;;;;;;;;;;;;;;;6341299;27;19952;-75
2023/09/15 00:41:41;;;;;;;;;;;;;;;;;;6357228;27;22442;-75
2023/09/15 00:44:42;;;;;;;;;;;;;;;;;;6353516;27;20358;-77
2023/09/15 00:47:43;;;;;;;;;;;;;;;;;;6356681;27;20571;-74
2023/09/15 00:50:43;;;;;;;;;;;;;;;;;;6358277;27;19920;-74
2023/09/15 00:53:45;;;;;;;;;;;;;;;;;;6360549;27;20016;-74
2023/09/15 00:56:45;;;;;;;;;;;;;;;;;;6358593;27;19978;-75
2023/09/15 00:59:45;;;;;;;;;;;;;;;;;;6355118;27;19912;-75
2023/09/15 01:02:46;;;;;;;;;;;;;;;;;;6352543;27;19923;-75
2023/09/15 01:05:46;;;;;;;;;;;;;;;;;;6352482;27;19946;-74
2023/09/15 01:08:47;;;;;;;;;;;;;;;;;;6357967;27;19919;-74
2023/09/15 01:11:49;;;;;;;;;;;;;;;;;;6339148;27;19937;-75
2023/09/15 01:14:50;;;;;;;;;;;;;;;;;;6347021;27;19916;-74
2023/09/15 01:17:50;;;;;;;;;;;;;;;;;;6355318;27;19965;-75
2023/09/15 01:20:52;;;;;;;;;;;;;;;;;;6349651;27;19926;-76
2023/09/15 01:23:52;;;;;;;;;;;;;;;;;;6353659;27;19911;-76
2023/09/15 01:26:52;;;;;;;;;;;;;;;;;;6355925;27;19954;-75
2023/09/15 01:29:53;;;;;;;;;;;;;;;;;;6352721;27;20350;-76
2023/09/15 01:32:53;;;;;;;;;;;;;;;;;;6343044;27;19915;-76
2023/09/15 01:35:55;;;;;;;;;;;;;;;;;;6353296;27;20382;-76
2023/09/15 01:38:55;;;;;;;;;;;;;;;;;;6351997;27;20407;-76
2023/09/15 01:41:57;;;;;;;;;;;;;;;;;;6354494;27;20002;-76
2023/09/15 01:44:57;;;;;;;;;;;;;;;;;;6351540;27;19919;-76
2023/09/15 01:47:57;;;;;;;;;;;;;;;;;;6352717;27;19924;-76
2023/09/15 01:50:58;;;;;;;;;;;;;;;;;;6353578;27;19938;-76
2023/09/15 01:53:58;;;;;;;;;;;;;;;;;;6355062;27;19941;-76
2023/09/15 01:56:58;;;;;;;;;;;;;;;;;;6353369;27;19916;-76
2023/09/15 01:59:58;;;;;;;;;;;;;;;;;;6351924;27;20412;-76
2023/09/15 02:02:59;;;;;;;;;;;;;;;;;;6353842;27;19926;-76
2023/09/15 02:06:03;;;;;;;;;;;;;;;;;;6352042;27;20011;-76
2023/09/15 02:09:04;;;;;;;;;;;;;;;;;;6351243;27;20015;-76
2023/09/15 02:12:04;;;;;;;;;;;;;;;;;;6353517;28;19911;-76
2023/09/15 02:15:04;;;;;;;;;;;;;;;;;;6349288;28;20016;-76
2023/09/15 02:18:06;;;;;;;;;;;;;;;;;;5999133;28;10000488;-76
2023/09/15 02:21:06;;;;;;;;;;;;;;;;;;6353491;28;20409;-75
2023/09/15 02:24:06;;;;;;;;;;;;;;;;;;6353912;28;19999;-75
2023/09/15 02:27:06;;;;;;;;;;;;;;;;;;6355830;28;20223;-76
2023/09/15 02:30:07;;;;;;;;;;;;;;;;;;6348577;28;19915;-76
2023/09/15 02:33:07;;;;;;;;;;;;;;;;;;6351476;28;19911;-76
2023/09/15 02:36:07;;;;;;;;;;;;;;;;;;6355325;28;19934;-76
2023/09/15 02:39:07;;;;;;;;;;;;;;;;;;6352145;28;20015;-76
2023/09/15 02:42:09;;;;;;;;;;;;;;;;;;6335875;28;19964;-76
2023/09/15 02:45:10;;;;;;;;;;;;;;;;;;6350584;28;19916;-76
2023/09/15 02:48:11;;;;;;;;;;;;;;;;;;6353563;28;19982;-76
2023/09/15 02:51:11;;;;;;;;;;;;;;;;;;6339565;28;19923;-75
2023/09/15 02:54:11;;;;;;;;;;;;;;;;;;6353000;28;19934;-76
2023/09/15 02:57:11;;;;;;;;;;;;;;;;;;6352842;28;19980;-76
2023/09/15 03:00:13;;;;;;;;;;;;;;;;;;6349249;28;21554;-76
2023/09/15 03:03:14;;;;;;;;;;;;;;;;;;6355961;28;19927;-76
2023/09/15 03:06:14;;;;;;;;;;;;;;;;;;6355603;28;19930;-76
2023/09/15 03:09:14;;;;;;;;;;;;;;;;;;6353972;27;19923;-76
2023/09/15 03:12:14;;;;;;;;;;;;;;;;;;6358657;27;19919;-76
2023/09/15 03:15:15;;;;;;;;;;;;;;;;;;6357799;27;19924;-76
2023/09/15 03:18:16;;;;;;;;;;;;;;;;;;6337567;27;19916;-76
2023/09/15 03:21:16;;;;;;;;;;;;;;;;;;6360057;27;19972;-76
2023/09/15 03:24:16;;;;;;;;;;;;;;;;;;6356260;27;19919;-76
2023/09/15 03:27:16;;;;;;;;;;;;;;;;;;6357594;27;20029;-76
2023/09/15 03:30:16;;;;;;;;;;;;;;;;;;6356504;27;20378;-76
2023/09/15 03:33:16;;;;;;;;;;;;;;;;;;6357989;27;19969;-76
2023/09/15 03:36:17;;;;;;;;;;;;;;;;;;6359188;27;20235;-75
2023/09/15 03:39:18;;;;;;;;;;;;;;;;;;6354935;27;20010;-75
2023/09/15 03:42:18;;;;;;;;;;;;;;;;;;6359571;27;19915;-76
2023/09/15 03:45:18;;;;;;;;;;;;;;;;;;6358057;27;19922;-76
2023/09/15 03:48:18;;;;;;;;;;;;;;;;;;6359805;27;19915;-75
2023/09/15 03:51:19;;;;;;;;;;;;;;;;;;6359653;27;20264;-76
2023/09/15 03:54:19;;;;;;;;;;;;;;;;;;6355204;27;19948;-76
2023/09/15 03:57:19;;;;;;;;;;;;;;;;;;6356435;27;19911;-76
2023/09/15 04:00:20;;;;;;;;;;;;;;;;;;6357874;27;19919;-75
2023/09/15 04:03:21;;;;;;;;;;;;;;;;;;6355501;27;19926;-76
2023/09/15 04:06:21;;;;;;;;;;;;;;;;;;6348859;27;19946;-76
2023/09/15 04:09:24;;;;;;;;;;;;;;;;;;6357621;27;20576;-75
2023/09/15 04:12:24;;;;;;;;;;;;;;;;;;6358852;27;19919;-75
2023/09/15 04:15:25;;;;;;;;;;;;;;;;;;6352923;27;19922;-75
2023/09/15 04:18:25;;;;;;;;;;;;;;;;;;6356854;27;19919;-75
2023/09/15 04:21:25;;;;;;;;;;;;;;;;;;6351009;27;20024;-76
2023/09/15 04:24:25;;;;;;;;;;;;;;;;;;6338878;27;20350;-76
2023/09/15 04:27:25;;;;;;;;;;;;;;;;;;6351023;27;19958;-75
2023/09/15 04:30:27;;;;;;;;;;;;;;;;;;6360580;27;20030;-75
2023/09/15 04:33:27;;;;;;;;;;;;;;;;;;6348743;27;20014;-75
2023/09/15 04:36:27;;;;;;;;;;;;;;;;;;6357238;27;19919;-75
2023/09/15 04:39:27;;;;;;;;;;;;;;;;;;6365950;27;20288;-75
2023/09/15 04:42:28;;;;;;;;;;;;;;;;;;6366205;27;20333;-75
2023/09/15 04:45:28;;;;;;;;;;;;;;;;;;6339420;27;19919;-76
2023/09/15 04:48:28;;;;;;;;;;;;;;;;;;6352092;27;19930;-76
2023/09/15 04:51:28;;;;;;;;;;;;;;;;;;6354542;27;19991;-76
2023/09/15 04:54:29;;;;;;;;;;;;;;;;;;6352617;27;19916;-77
2023/09/15 04:57:29;;;;;;;;;;;;;;;;;;6331622;27;19911;-77
2023/09/15 05:00:29;;;;;;;;;;;;;;;;;;6348610;27;19908;-74
2023/09/15 05:03:29;;;;;;;;;;;;;;;;;;6352343;27;19920;-77
2023/09/15 05:06:29;;;;;;;;;;;;;;;;;;6330272;27;19963;-77
2023/09/15 05:09:30;;;;;;;;;;;;;;;;;;6309228;28;19923;-75
2023/09/15 05:12:30;;;;;;;;;;;;;;;;;;6328842;28;19912;-72
2023/09/15 05:15:30;;;;;;;;;;;;;;;;;;6321973;27;19915;-72
2023/09/15 05:18:30;;;;;;;;;;;;;;;;;;6352235;27;20218;-72
2023/09/15 05:21:31;;;;;;;;;;;;;;;;;;6358258;27;19937;-72
2023/09/15 05:24:31;;;;;;;;;;;;;;;;;;6368701;27;19916;-72
2023/09/15 05:27:31;;;;;;;;;;;;;;;;;;6358333;27;19981;-72
2023/09/15 05:30:31;;;;;;;;;;;;;;;;;;6370481;27;19912;-72
2023/09/15 05:33:31;;;;;;;;;;;;;;;;;;6370513;27;19915;-72
2023/09/15 05:36:31;;;;;;;;;;;;;;;;;;6357770;27;19930;-72
2023/09/15 05:39:31;;;;;;;;;;;;;;;;;;6328807;28;20396;-72
2023/09/15 05:42:32;;;;;;;;;;;;;;;;;;6365013;27;19994;-73
2023/09/15 05:45:32;;;;;;;;;;;;;;;;;;6353727;27;19912;-72
2023/09/15 05:48:32;;;;;;;;;;;;;;;;;;6351332;27;19922;-73
2023/09/15 05:51:32;;;;;;;;;;;;;;;;;;6351746;27;19912;-72
2023/09/15 05:54:33;;;;;;;;;;;;;;;;;;6353968;27;22381;-73
2023/09/15 05:57:33;;;;;;;;;;;;;;;;;;6338291;28;20373;-72
2023/09/15 06:00:34;;;;;;;;;;;;;;;;;;6351542;27;19926;-73
2023/09/15 06:03:34;;;;;;;;;;;;;;;;;;6361942;27;19954;-73
2023/09/15 06:06:34;;;;;;;;;;;;;;;;;;6360280;27;19923;-73
2023/09/15 06:09:34;;;;;;;;;;;;;;;;;;6355288;27;19942;-73
2023/09/15 06:12:34;;;;;;;;;;;;;;;;;;6353608;28;19944;-73
2023/09/15 06:15:34;;;;;;;;;;;;;;;;;;6362671;28;19923;-73
2023/09/15 06:18:35;;;;;;;;;;;;;;;;;;6370940;28;19907;-73
2023/09/15 06:21:35;;;;;;;;;;;;;;;;;;6350856;28;19917;-72
2023/09/15 06:24:35;;;;;;;;;;;;;;;;;;6343932;28;20396;-73
2023/09/15 06:27:35;;;;;;;;;;;;;;;;;;6338456;28;19915;-72
2023/09/15 06:30:36;;;;;;;;;;;;;;;;;;6354918;27;19922;-72
2023/09/15 06:33:36;;;;;;;;;;;;;;;;;;6356578;28;22249;-72
2023/09/15 06:36:38;;;;;;;;;;;;;;;;;;6354334;28;20045;-72
2023/09/15 06:39:39;;;;;;;;;;;;;;;;;;6335771;28;19953;-72
2023/09/15 06:42:39;;;;;;;;;;;;;;;;;;6355471;27;19916;-72
2023/09/15 06:45:39;;;;;;;;;;;;;;;;;;6357022;27;19966;-74
2023/09/15 06:48:39;;;;;;;;;;;;;;;;;;6356045;27;19934;-72
2023/09/15 06:51:40;;;;;;;;;;;;;;;;;;6355074;27;19911;-71
2023/09/15 06:54:40;;;;;;;;;;;;;;;;;;6358039;27;20324;-72
2023/09/15 06:57:40;;;;;;;;;;;;;;;;;;6354300;27;20011;-72
2023/09/15 07:00:41;;;;;;;;;;;;;;;;;;6357930;27;19990;-74
2023/09/15 07:03:41;;;;;;;;;;;;;;;;;;6357626;27;20373;-74
2023/09/15 07:06:41;;;;;;;;;;;;;;;;;;6352335;27;19972;-73
2023/09/15 07:09:41;;;;;;;;;;;;;;;;;;6360385;27;19919;-75
2023/09/15 07:12:41;;;;;;;;;;;;;;;;;;6359853;27;19956;-75
2023/09/15 07:15:41;;;;;;;;;;;;;;;;;;6368850;27;19941;-75
2023/09/15 07:18:41;;;;;;;;;;;;;;;;;;6362300;27;19912;-75
2023/09/15 07:21:43;;;;;;;;;;;;;;;;;;6367999;27;19935;-75
2023/09/15 07:24:44;;;;;;;;;;;;;;;;;;6374409;27;19912;-74
2023/09/15 07:27:44;;;;;;;;;;;;;;;;;;6366250;27;20012;-73
2023/09/15 07:30:44;;;;;;;;;;;;;;;;;;6348483;27;20392;-73
2023/09/15 07:33:44;;;;;;;;;;;;;;;;;;6360518;27;20015;-72
2023/09/15 07:36:50;;;;;;;;;;;;;;;;;;6350027;27;19942;-72
2023/09/15 07:39:50;;;;;;;;;;;;;;;;;;6357182;27;19912;-72
2023/09/15 07:42:50;;;;;;;;;;;;;;;;;;6360677;27;19922;-72
2023/09/15 07:45:50;;;;;;;;;;;;;;;;;;6352418;27;20878;-72
2023/09/15 07:48:50;;;;;;;;;;;;;;;;;;6335512;27;19911;-71
2023/09/15 07:51:51;;;;;;;;;;;;;;;;;;6338393;27;19919;-72
2023/09/15 07:54:51;;;;;;;;;;;;;;;;;;6342519;27;19915;-72
2023/09/15 07:57:51;;;;;;;;;;;;;;;;;;6360411;27;19915;-72
2023/09/15 08:00:51;;;;;;;;;;;;;;;;;;6339393;27;20273;-72
2023/09/15 08:03:51;;;;;;;;;;;;;;;;;;6335678;27;20337;-73
2023/09/15 08:06:52;;;;;;;;;;;;;;;;;;6334186;28;20023;-74
2023/09/15 08:09:52;;;;;;;;;;;;;;;;;;6333676;28;20362;-73
2023/09/15 08:12:53;;;;;;;;;;;;;;;;;;5967453;28;9999794;-74
2023/09/15 08:15:53;;;;;;;;;;;;;;;;;;6336990;28;19920;-73
2023/09/15 08:18:54;;;;;;;;;;;;;;;;;;6339263;28;19946;-74
2023/09/15 08:21:55;;;;;;;;;;;;;;;;;;6330941;28;19973;-75
2023/09/15 08:24:55;;;;;;;;;;;;;;;;;;6326488;28;20350;-74
2023/09/15 08:27:55;;;;;;;;;;;;;;;;;;6326143;28;20058;-75
2023/09/15 08:30:55;;;;;;;;;;;;;;;;;;6331257;28;19911;-75
2023/09/15 08:33:55;;;;;;;;;;;;;;;;;;6325337;28;19916;-76
2023/09/15 08:36:56;;;;;;;;;;;;;;;;;;6330475;28;20002;-76
2023/09/15 08:39:56;;;;;;;;;;;;;;;;;;6340504;28;19916;-74
2023/09/15 08:42:56;;;;;;;;;;;;;;;;;;5981615;28;10000461;-74
2023/09/15 08:45:56;;;;;;;;;;;;;;;;;;6325719;28;20002;-74
2023/09/15 08:48:56;;;;;;;;;;;;;;;;;;6321053;28;20400;-75
2023/09/15 08:51:57;;;;;;;;;;;;;;;;;;6318807;28;20368;-74
2023/09/15 08:54:57;;;;;;;;;;;;;;;;;;6330724;28;19978;-75
2023/09/15 08:57:57;;;;;;;;;;;;;;;;;;6333468;28;20015;-75
2023/09/15 09:00:57;;;;;;;;;;;;;;;;;;6346636;28;19918;-74
2023/09/15 09:03:57;;;;;;;;;;;;;;;;;;6342439;28;20101;-80
2023/09/15 09:06:58;;;;;;;;;;;;;;;;;;6344864;28;20358;-75
2023/09/15 09:09:58;;;;;;;;;;;;;;;;;;6325716;28;20020;-75
2023/09/15 09:12:58;;;;;;;;;;;;;;;;;;6325059;28;20374;-76
2023/09/15 09:15:59;;;;;;;;;;;;;;;;;;6349201;27;19915;-75
2023/09/15 09:18:59;;;;;;;;;;;;;;;;;;6330188;28;19908;-80
2023/09/15 09:21:59;;;;;;;;;;;;;;;;;;6347924;28;20288;-78
2023/09/15 09:24:59;;;;;;;;;;;;;;;;;;6339867;28;19912;-78
2023/09/15 09:28:00;;;;;;;;;;;;;;;;;;6336512;28;20512;-78
2023/09/15 09:31:00;;;;;;;;;;;;;;;;;;6333911;28;19918;-79
2023/09/15 09:34:00;;;;;;;;;;;;;;;;;;6330900;28;20015;-78
2023/09/15 09:37:01;;;;;;;;;;;;;;;;;;6326411;28;20316;-79
2023/09/15 09:40:02;;;;;;;;;;;;;;;;;;6331209;28;19916;-78
2023/09/15 09:43:02;;;;;;;;;;;;;;;;;;6312870;28;19927;-77
2023/09/15 09:46:03;;;;;;;;;;;;;;;;;;6332834;28;19930;-77
2023/09/15 09:49:03;;;;;;;;;;;;;;;;;;6329975;28;19915;-77
2023/09/15 09:52:03;;;;;;;;;;;;;;;;;;6329765;28;19964;-77
2023/09/15 09:55:04;;;;;;;;;;;;;;;;;;6341966;28;20003;-77
2023/09/15 09:58:09;;;;;;;;;;;;;;;;;;6322818;28;20455;-77
2023/09/15 10:01:11;;;;;;;;;;;;;;;;;;6326203;28;19920;-78
2023/09/15 10:04:12;;;;;;;;;;;;;;;;;;6320468;28;19927;-79
2023/09/15 10:07:12;;;;;;;;;;;;;;;;;;6320265;28;20298;-82
2023/09/15 10:10:13;;;;;;;;;;;;;;;;;;6308197;28;20019;-81
2023/09/15 10:13:13;;;;;;;;;;;;;;;;;;6321248;28;20294;-77
2023/09/15 10:16:13;;;;;;;;;;;;;;;;;;6315474;28;19923;-81
2023/09/15 10:19:13;;;;;;;;;;;;;;;;;;6303975;28;19911;-82
2023/09/15 10:22:13;;;;;;;;;;;;;;;;;;6318131;28;19916;-83
2023/09/15 10:25:14;;;;;;;;;;;;;;;;;;6331087;28;19923;-83
2023/09/15 10:28:17;;;;;;;;;;;;;;;;;;6323037;28;19912;-84
2023/09/15 10:31:18;;;;;;;;;;;;;;;;;;6317018;28;19912;-83
2023/09/15 10:34:18;;;;;;;;;;;;;;;;;;6324441;28;19916;-84
2023/09/15 10:37:18;;;;;;;;;;;;;;;;;;6321377;28;20370;-86
2023/09/15 10:40:18;;;;;;;;;;;;;;;;;;6318230;28;19919;-84
2023/09/15 10:43:19;;;;;;;;;;;;;;;;;;6307583;28;20012;-81
2023/09/15 10:46:19;;;;;;;;;;;;;;;;;;6294132;28;19984;-80
2023/09/15 10:49:19;;;;;;;;;;;;;;;;;;6278163;28;19915;-81
2023/09/15 10:52:19;;;;;;;;;;;;;;;;;;6305660;28;19988;-82
2023/09/15 10:55:19;;;;;;;;;;;;;;;;;;6321128;28;19912;-81
2023/09/15 10:58:20;;;;;;;;;;;;;;;;;;6324659;28;19908;-81
2023/09/15 11:01:20;;;;;;;;;;;;;;;;;;6317395;28;19934;-79
2023/09/15 11:04:25;;;;;;;;;;;;;;;;;;6374740;28;19926;-87
2023/09/15 11:07:26;;;;;;;;;;;;;;;;;;6364139;28;19922;-90
2023/09/15 11:10:27;;;;;;;;;;;;;;;;;;6348564;28;19999;-81
2023/09/15 11:13:28;;;;;;;;;;;;;;;;;;6365733;28;20418;-80
2023/09/15 11:16:28;;;;;;;;;;;;;;;;;;6369202;28;19918;-84
2023/09/15 11:19:30;;;;;;;;;;;;;;;;;;6349762;28;19912;-81
2023/09/15 11:22:30;;;;;;;;;;;;;;;;;;6351887;28;19933;-81
2023/09/15 11:25:30;;;;;;;;;;;;;;;;;;6353631;28;19992;-78
2023/09/15 11:28:30;;;;;;;;;;;;;;;;;;6350051;28;19927;-78
2023/09/15 11:31:33;;;;;;;;;;;;;;;;;;6352237;27;20358;-81
2023/09/15 11:34:34;;;;;;;;;;;;;;;;;;6360472;27;19911;-84
2023/09/15 11:37:35;;;;;;;;;;;;;;;;;;6361481;27;19933;-81
2023/09/15 11:40:35;;;;;;;;;;;;;;;;;;6380988;27;19907;-80
2023/09/15 11:43:38;;;;;;;;;;;;;;;;;;6379864;27;19923;-79
2023/09/15 11:46:38;;;;;;;;;;;;;;;;;;6356503;27;19998;-81
2023/09/15 11:49:38;;;;;;;;;;;;;;;;;;6374453;27;19915;-80
2023/09/15 11:52:39;;;;;;;;;;;;;;;;;;6375701;27;19938;-80
2023/09/15 11:55:39;;;;;;;;;;;;;;;;;;6375430;27;20052;-80
2023/09/15 11:58:39;;;;;;;;;;;;;;;;;;6375732;27;19931;-80
2023/09/15 12:01:40;;;;;;;;;;;;;;;;;;6373631;27;19937;-81
2023/09/15 12:04:40;;;;;;;;;;;;;;;;;;6374941;27;20363;-80
2023/09/15 12:07:41;;;;;;;;;;;;;;;;;;6373921;27;19918;-81
2023/09/15 12:10:42;;;;;;;;;;;;;;;;;;6353310;27;19999;-81
2023/09/15 12:13:43;;;;;;;;;;;;;;;;;;6349813;28;19911;-81
2023/09/15 12:16:43;;;;;;;;;;;;;;;;;;6352430;27;19911;-81
2023/09/15 12:19:43;;;;;;;;;;;;;;;;;;6375199;27;19911;-81
2023/09/15 12:22:43;;;;;;;;;;;;;;;;;;6368234;27;19947;-82
2023/09/15 12:25:43;;;;;;;;;;;;;;;;;;6352851;27;19915;-81
2023/09/15 12:28:43;;;;;;;;;;;;;;;;;;6364889;27;20497;-81
2023/09/15 12:31:47;;;;;;;;;;;;;;;;;;6373044;27;19912;-81
2023/09/15 12:34:47;;;;;;;;;;;;;;;;;;6374069;27;19915;-81
2023/09/15 12:37:48;;;;;;;;;;;;;;;;;;6373082;27;19912;-81
2023/09/15 12:40:48;;;;;;;;;;;;;;;;;;6374748;27;19908;-82
2023/09/15 12:43:48;;;;;;;;;;;;;;;;;;6374767;27;19907;-80
2023/09/15 12:46:48;;;;;;;;;;;;;;;;;;6373477;27;19907;-80
2023/09/15 12:49:48;;;;;;;;;;;;;;;;;;6356907;27;19908;-81
2023/09/15 12:52:49;;;;;;;;;;;;;;;;;;6374311;27;19985;-83
2023/09/15 12:55:51;;;;;;;;;;;;;;;;;;6374719;27;20014;-81
2023/09/15 12:58:51;;;;;;;;;;;;;;;;;;6380397;27;20357;-81
2023/09/15 13:01:51;;;;;;;;;;;;;;;;;;6386238;27;19958;-81
2023/09/15 13:04:51;;;;;;;;;;;;;;;;;;6383708;27;19975;-80
2023/09/15 13:07:51;;;;;;;;;;;;;;;;;;6373639;27;19962;-81
2023/09/15 13:10:51;;;;;;;;;;;;;;;;;;6372641;27;19950;-81
2023/09/15 13:13:52;;;;;;;;;;;;;;;;;;6374441;27;19998;-81
2023/09/15 13:16:52;;;;;;;;;;;;;;;;;;6372163;27;19908;-81
2023/09/15 13:19:53;;;;;;;;;;;;;;;;;;6353126;27;20473;-80
2023/09/15 13:22:53;;;;;;;;;;;;;;;;;;6346741;27;20428;-79
2023/09/15 13:25:53;;;;;;;;;;;;;;;;;;6372660;27;19933;-82
2023/09/15 13:28:53;;;;;;;;;;;;;;;;;;6372560;27;19912;-81
2023/09/15 13:31:53;;;;;;;;;;;;;;;;;;6371631;27;19976;-81
2023/09/15 13:34:54;;;;;;;;;;;;;;;;;;6372628;27;20393;-81
2023/09/15 13:37:54;;;;;;;;;;;;;;;;;;6372802;27;19980;-80
2023/09/15 13:40:55;;;;;;;;;;;;;;;;;;6372865;27;20327;-80
2023/09/15 13:43:55;;;;;;;;;;;;;;;;;;6371644;27;19915;-81
2023/09/15 13:46:56;;;;;;;;;;;;;;;;;;6371165;27;20365;-81
2023/09/15 13:49:56;;;;;;;;;;;;;;;;;;6373600;27;19908;-81
2023/09/15 13:52:56;;;;;;;;;;;;;;;;;;6371927;27;19965;-82
2023/09/15 13:55:56;;;;;;;;;;;;;;;;;;6372364;27;19915;-81
2023/09/15 13:58:56;;;;;;;;;;;;;;;;;;6371714;27;20373;-82
2023/09/15 14:01:56;;;;;;;;;;;;;;;;;;6350216;27;19916;-81
2023/09/15 14:04:57;;;;;;;;;;;;;;;;;;6372281;27;20061;-81
2023/09/15 14:07:57;;;;;;;;;;;;;;;;;;6372387;27;19908;-82
2023/09/15 14:10:57;;;;;;;;;;;;;;;;;;6369907;27;19916;-86
2023/09/15 14:13:57;;;;;;;;;;;;;;;;;;6372544;27;19915;-82
2023/09/15 14:16:58;;;;;;;;;;;;;;;;;;6366664;28;19912;-82
2023/09/15 14:19:58;;;;;;;;;;;;;;;;;;6368726;28;20388;-82
2023/09/15 14:22:58;;;;;;;;;;;;;;;;;;6372738;28;20015;-82
2023/09/15 14:25:59;;;;;;;;;;;;;;;;;;6372525;28;20319;-82
2023/09/15 14:29:00;;;;;;;;;;;;;;;;;;6371821;28;19916;-82
2023/09/15 14:32:00;;;;;;;;;;;;;;;;;;6370303;28;19941;-82
2023/09/15 14:35:01;;;;;;;;;;;;;;;;;;6344899;28;19919;-83
2023/09/15 14:38:01;;;;;;;;;;;;;;;;;;6349173;28;19942;-84
2023/09/15 14:41:02;;;;;;;;;;;;;;;;;;6372793;28;19946;-83
2023/09/15 14:44:03;;;;;;;;;;;;;;;;;;6372087;28;19915;-83
2023/09/15 14:47:03;;;;;;;;;;;;;;;;;;6371768;28;19911;-82
2023/09/15 14:50:05;;;;;;;;;;;;;;;;;;6371173;28;19912;-80
2023/09/15 14:53:05;;;;;;;;;;;;;;;;;;6371529;28;20336;-81
2023/09/15 14:56:05;;;;;;;;;;;;;;;;;;6372042;28;20004;-79
2023/09/15 14:59:05;;;;;;;;;;;;;;;;;;6376308;28;19915;-80
2023/09/15 15:02:06;;;;;;;;;;;;;;;;;;6380009;28;19954;-80
2023/09/15 15:05:06;;;;;;;;;;;;;;;;;;6360684;27;19958;-79
2023/09/15 15:08:06;;;;;;;;;;;;;;;;;;6376584;27;19976;-80
2023/09/15 15:11:06;;;;;;;;;;;;;;;;;;6377802;27;19915;-82
2023/09/15 15:14:07;;;;;;;;;;;;;;;;;;6375876;27;20337;-81
2023/09/15 15:17:07;;;;;;;;;;;;;;;;;;6352249;27;19911;-81
2023/09/15 15:20:07;;;;;;;;;;;;;;;;;;6360585;27;19908;-82
2023/09/15 15:23:08;;;;;;;;;;;;;;;;;;6363244;27;20416;-81
2023/09/15 15:26:08;;;;;;;;;;;;;;;;;;6357461;27;19916;-82
2023/09/15 15:29:08;;;;;;;;;;;;;;;;;;6376412;27;19911;-82
2023/09/15 15:32:08;;;;;;;;;;;;;;;;;;6374181;27;19919;-82
2023/09/15 15:35:09;;;;;;;;;;;;;;;;;;6367593;27;19911;-81
2023/09/15 15:38:09;;;;;;;;;;;;;;;;;;6372403;27;20373;-80
2023/09/15 15:41:09;;;;;;;;;;;;;;;;;;6358081;27;19912;-82
2023/09/15 15:44:11;;;;;;;;;;;;;;;;;;6374963;27;19907;-82
2023/09/15 15:47:11;;;;;;;;;;;;;;;;;;6357188;27;19912;-79
2023/09/15 15:50:12;;;;;;;;;;;;;;;;;;6377935;27;19907;-82
2023/09/15 15:53:12;;;;;;;;;;;;;;;;;;6376607;27;19908;-80
2023/09/15 15:56:13;;;;;;;;;;;;;;;;;;6376866;27;19998;-79
2023/09/15 15:59:14;;;;;;;;;;;;;;;;;;6374175;27;19911;-80
2023/09/15 16:02:15;;;;;;;;;;;;;;;;;;6373463;27;19926;-79
2023/09/15 16:05:16;;;;;;;;;;;;;;;;;;6367078;27;20350;-81
2023/09/15 16:08:16;;;;;;;;;;;;;;;;;;6369727;27;19927;-81
2023/09/15 16:11:18;;;;;;;;;;;;;;;;;;6364138;27;20042;-80
2023/09/15 16:14:19;;;;;;;;;;;;;;;;;;6350285;27;19947;-83
2023/09/15 16:17:20;;;;;;;;;;;;;;;;;;6373884;27;19907;-85
2023/09/15 16:20:20;;;;;;;;;;;;;;;;;;6356754;27;19972;-77
2023/09/15 16:23:21;;;;;;;;;;;;;;;;;;6364079;27;19912;-77
2023/09/15 16:26:22;;;;;;;;;;;;;;;;;;6347696;28;19919;-77
2023/09/15 16:29:24;;;;;;;;;;;;;;;;;;6348740;28;19911;-77
2023/09/15 16:32:24;;;;;;;;;;;;;;;;;;6358316;27;19976;-76
2023/09/15 16:35:26;;;;;;;;;;;;;;;;;;6364760;27;19919;-77
2023/09/15 16:38:28;;;;;;;;;;;;;;;;;;6374214;27;19919;-77
2023/09/15 16:41:29;;;;;;;;;;;;;;;;;;6374703;27;20045;-76
2023/09/15 16:44:29;;;;;;;;;;;;;;;;;;6373524;27;19918;-76
2023/09/15 16:47:30;;;;;;;;;;;;;;;;;;6373173;27;19915;-76
2023/09/15 16:50:33;;;;;;;;;;;;;;;;;;6372445;27;19922;-75
2023/09/15 16:53:33;;;;;;;;;;;;;;;;;;6372962;27;19912;-76
2023/09/15 16:56:34;;;;;;;;;;;;;;;;;;6355418;27;19912;-76
2023/09/15 16:59:37;;;;;;;;;;;;;;;;;;6378905;27;19907;-75
2023/09/15 17:02:37;;;;;;;;;;;;;;;;;;6385930;27;19916;-76
2023/09/15 17:05:37;;;;;;;;;;;;;;;;;;6382152;27;19920;-76
2023/09/15 17:08:37;;;;;;;;;;;;;;;;;;6352843;27;19918;-75
2023/09/15 17:11:37;;;;;;;;;;;;;;;;;;6373449;27;19929;-74
2023/09/15 17:14:38;;;;;;;;;;;;;;;;;;6373898;27;19916;-75
2023/09/15 17:17:38;;;;;;;;;;;;;;;;;;6372591;27;20366;-76
2023/09/15 17:20:38;;;;;;;;;;;;;;;;;;6355068;27;19911;-76
2023/09/15 17:23:38;;;;;;;;;;;;;;;;;;6372787;27;20011;-76
2023/09/15 17:26:38;;;;;;;;;;;;;;;;;;6371649;27;19912;-75
2023/09/15 17:29:40;;;;;;;;;;;;;;;;;;6355290;27;20016;-86
2023/09/15 17:32:40;;;;;;;;;;;;;;;;;;6356602;27;19907;-86
2023/09/15 17:35:40;;;;;;;;;;;;;;;;;;6359515;27;19911;-88
2023/09/15 17:38:40;;;;;;;;;;;;;;;;;;6377047;27;20344;-88
2023/09/15 17:41:40;;;;;;;;;;;;;;;;;;6382942;27;19911;-88
2023/09/15 17:44:41;;;;;;;;;;;;;;;;;;6375065;27;20283;-86
2023/09/15 17:47:41;;;;;;;;;;;;;;;;;;6356344;27;19914;-86
2023/09/15 17:50:41;;;;;;;;;;;;;;;;;;6378336;27;19907;-87
2023/09/15 17:53:41;;;;;;;;;;;;;;;;;;6355800;27;19988;-87
2023/09/15 17:56:41;;;;;;;;;;;;;;;;;;6374279;27;20375;-88
2023/09/15 17:59:42;;;;;;;;;;;;;;;;;;6378195;27;20305;-87
2023/09/15 18:02:42;;;;;;;;;;;;;;;;;;6375588;27;19951;-86
2023/09/15 18:05:43;;;;;;;;;;;;;;;;;;6377064;27;19919;-88
2023/09/15 18:08:43;;;;;;;;;;;;;;;;;;6376834;27;19978;-89
2023/09/15 18:11:43;;;;;;;;;;;;;;;;;;6377286;27;19915;-88
2023/09/15 18:14:44;;;;;;;;;;;;;;;;;;6363227;27;19919;-89
2023/09/15 18:17:44;;;;;;;;;;;;;;;;;;6369980;27;20385;-88
2023/09/15 18:20:44;;;;;;;;;;;;;;;;;;6360576;28;20035;-90
2023/09/15 18:23:45;;;;;;;;;;;;;;;;;;6362358;28;20373;-88
2023/09/15 18:26:46;;;;;;;;;;;;;;;;;;6381711;28;19937;-89
2023/09/15 18:29:46;;;;;;;;;;;;;;;;;;6380865;28;19907;-89
2023/09/15 18:32:49;;;;;;;;;;;;;;;;;;6360816;28;19931;-89
2023/09/15 18:35:49;;;;;;;;;;;;;;;;;;6347332;28;19922;-88
2023/09/15 18:38:53;;;;;;;;;;;;;;;;;;6348742;28;19975;-87
2023/09/15 18:41:53;;;;;;;;;;;;;;;;;;6367735;28;19914;-88
2023/09/15 18:44:53;;;;;;;;;;;;;;;;;;6378313;28;19995;-88
2023/09/15 18:47:53;;;;;;;;;;;;;;;;;;6377740;27;19908;-88
2023/09/15 18:50:53;;;;;;;;;;;;;;;;;;6376205;27;19907;-88
2023/09/15 18:53:54;;;;;;;;;;;;;;;;;;6394205;27;20384;-88
2023/09/15 18:56:54;;;;;;;;;;;;;;;;;;6392870;27;20338;-88
2023/09/15 18:59:56;;;;;;;;;;;;;;;;;;6394660;27;19908;-89
2023/09/15 19:02:57;;;;;;;;;;;;;;;;;;6376224;27;19950;-88
2023/09/15 19:05:57;;;;;;;;;;;;;;;;;;6368715;28;19923;-88
2023/09/15 19:08:57;;;;;;;;;;;;;;;;;;6392902;27;19903;-88
2023/09/15 19:11:59;;;;;;;;;;;;;;;;;;6396080;27;19916;-87
2023/09/15 19:14:59;;;;;;;;;;;;;;;;;;6380562;27;19911;-88
2023/09/15 19:17:59;;;;;;;;;;;;;;;;;;6366661;27;19915;-88
2023/09/15 19:20:59;;;;;;;;;;;;;;;;;;6354669;28;19908;-87
2023/09/15 19:23:59;;;;;;;;;;;;;;;;;;6379354;27;19943;-88
2023/09/15 19:27:00;;;;;;;;;;;;;;;;;;6381049;27;19986;-87
2023/09/15 19:30:00;;;;;;;;;;;;;;;;;;6385569;27;20263;-86
2023/09/15 19:33:01;;;;;;;;;;;;;;;;;;6381158;27;19907;-88
2023/09/15 19:36:02;;;;;;;;;;;;;;;;;;6387130;27;19942;-86
2023/09/15 19:39:03;;;;;;;;;;;;;;;;;;6392632;27;19911;-87
2023/09/15 19:42:03;;;;;;;;;;;;;;;;;;6363791;27;19954;-88
2023/09/15 19:45:03;;;;;;;;;;;;;;;;;;6379167;27;20354;-88
2023/09/15 19:48:05;;;;;;;;;;;;;;;;;;6381421;27;20041;-88
2023/09/15 19:51:05;;;;;;;;;;;;;;;;;;6379542;27;19918;-88
2023/09/15 19:54:05;;;;;;;;;;;;;;;;;;6381201;27;19919;-88
2023/09/15 19:57:06;;;;;;;;;;;;;;;;;;6383002;27;20009;-89
2023/09/15 20:00:06;;;;;;;;;;;;;;;;;;6381864;27;19966;-88
2023/09/15 20:03:06;;;;;;;;;;;;;;;;;;6384239;27;19931;-88
2023/09/15 20:06:07;;;;;;;;;;;;;;;;;;6388904;27;19915;-88
2023/09/15 20:09:07;;;;;;;;;;;;;;;;;;6395471;27;19907;-88
2023/09/15 20:12:08;;;;;;;;;;;;;;;;;;6378546;27;19934;-89
2023/09/15 20:15:10;;;;;;;;;;;;;;;;;;6405688;27;19932;-89
2023/09/15 20:18:11;;;;;;;;;;;;;;;;;;6404602;27;19915;-88
2023/09/15 20:21:11;;;;;;;;;;;;;;;;;;6400680;27;19907;-89
2023/09/15 20:24:18;;;;;;;;;;;;;;;;;;6402460;27;19933;-88
2023/09/15 20:27:18;;;;;;;;;;;;;;;;;;6401771;27;19908;-88
2023/09/15 20:30:19;;;;;;;;;;;;;;;;;;6393871;27;19946;-88